Current Weather

Guemar

Guemar, Algeria (DAUO)

Report from: Tuesday, February 27, 2024 10:00 AM CET
Current time: Tuesday, February 27, 2024 11:05 AM CET

Nearby weather – Weather history – Daily summaries
Weather forecast

Present weatherDRSA
Temperature15.0°C (59.0°F)
Dew point2.0°C (35.6°F)
Winds 17 kts (8.7 m/s, 19.6 mph) Northwest (320°)
Visibility1.9 mi. (3 km)
Clouds Few clouds 4,600 ft. (1,402 m)
Scattered clouds 10,000 ft. (3,048 m)
Altimeter29.74 in.Hg (1007 mB)
Relative humidity41 %
Density altitude319 ft. (97 m)
Flight conditions Instrument Meteorological Conditions
Raw dataDAUO 270900Z 32017KT 3000 DRSA FEW046 SCT100 15/02 Q1007
An error has occurred. This application may no longer respond until reloaded. Reload 🗙